Time;durP1;ratioP1;P1;durP2;ratioP2;P2;SDS_P1;SDS_P2;PMS_P1;PMS_P2;Temp;Humidity;BMP_temperature;BMP_pressure;BME280_temperature;BME280_humidity;BME280_pressure;Samples;Min_cycle;Max_cycle;Signal;HPM_P1;HPM_P2
2022/03/20 06:22:41;;;;;;;16.67;8.02;;;;;;;;;;5319281;23;20154;-60
2022/03/20 06:25:11;;;;;;;18.00;8.45;;;;;;;;;;4956008;28;20043;-62
2022/03/20 06:27:51;;;;;;;15.65;7.78;;;;;;;;;;4955744;28;20494;-62
2022/03/20 06:30:18;;;;;;;16.98;8.00;;;;;;;;;;4955989;29;20039;-63
2022/03/20 06:32:45;;;;;;;15.50;8.27;;;;;;;;;;4955389;29;20027;-61
2022/03/20 06:35:12;;;;;;;16.30;7.88;;;;;;;;;;4955361;29;20034;-58
2022/03/20 06:37:39;;;;;;;14.07;7.85;;;;;;;;;;4955199;28;20033;-61
2022/03/20 06:40:06;;;;;;;14.30;7.78;;;;;;;;;;4955321;28;20494;-60
2022/03/20 06:42:32;;;;;;;18.40;8.13;;;;;;;;;;4954797;28;20023;-59
2022/03/20 06:44:59;;;;;;;16.17;7.68;;;;;;;;;;4953771;29;20114;-59
2022/03/20 06:47:26;;;;;;;13.65;6.78;;;;;;;;;;4953419;29;20027;-59
2022/03/20 06:49:53;;;;;;;15.80;8.00;;;;;;;;;;4953295;28;20023;-58
2022/03/20 06:52:21;;;;;;;15.55;7.60;;;;;;;;;;4953500;28;20050;-58
2022/03/20 06:54:47;;;;;;;12.60;7.05;;;;;;;;;;4953831;29;20031;-59
2022/03/20 06:57:13;;;;;;;14.48;7.28;;;;;;;;;;4953344;29;20027;-58
2022/03/20 06:59:39;;;;;;;17.42;6.38;;;;;;;;;;4953626;28;20471;-58
2022/03/20 07:02:05;;;;;;;11.68;5.90;;;;;;;;;;4953837;29;20479;-59
2022/03/20 07:04:31;;;;;;;11.75;6.40;;;;;;;;;;4953617;29;20110;-59
2022/03/20 07:06:59;;;;;;;14.75;7.07;;;;;;;;;;4953580;29;20059;-61
2022/03/20 07:09:25;;;;;;;15.93;7.10;;;;;;;;;;4953922;28;20090;-60
2022/03/20 07:11:51;;;;;;;15.07;7.20;;;;;;;;;;4953378;29;20686;-60
2022/03/20 07:14:18;;;;;;;13.85;5.93;;;;;;;;;;4950618;28;20777;-61
2022/03/20 07:16:44;;;;;;;14.15;6.75;;;;;;;;;;4953530;28;20095;-61
2022/03/20 07:19:11;;;;;;;14.82;8.00;;;;;;;;;;4953747;29;20034;-61
2022/03/20 07:21:37;;;;;;;19.83;8.35;;;;;;;;;;4954265;29;20059;-60
2022/03/20 07:24:03;;;;;;;17.10;6.70;;;;;;;;;;4939645;29;20051;-60
2022/03/20 07:29:29;;;;;;;12.27;6.50;;;;;;;;;;4933550;29;20050;-62
2022/03/20 07:31:57;;;;;;;11.75;5.82;;;;;;;;;;4934113;29;20034;-60
2022/03/20 07:34:23;;;;;;;11.35;6.05;;;;;;;;;;4934782;29;20020;-61
2022/03/20 07:36:50;;;;;;;11.32;5.72;;;;;;;;;;4934528;29;20028;-61
2022/03/20 07:39:16;;;;;;;11.32;6.20;;;;;;;;;;4934435;29;20059;-62
2022/03/20 07:41:42;;;;;;;14.15;6.32;;;;;;;;;;4934713;29;20106;-62
2022/03/20 07:44:08;;;;;;;13.77;5.88;;;;;;;;;;4934174;29;20059;-60
2022/03/20 07:46:36;;;;;;;11.95;6.43;;;;;;;;;;4933644;29;20028;-61
2022/03/20 07:49:02;;;;;;;15.65;6.28;;;;;;;;;;4933275;29;20048;-60
2022/03/20 07:51:30;;;;;;;15.68;5.55;;;;;;;;;;4933561;29;20027;-60
2022/03/20 07:53:56;;;;;;;25.13;6.55;;;;;;;;;;4934018;29;20032;-61
2022/03/20 07:56:23;;;;;;;13.32;6.28;;;;;;;;;;4933573;29;20472;-59
2022/03/20 07:58:49;;;;;;;12.73;6.40;;;;;;;;;;4933714;29;20060;-60
2022/03/20 08:01:15;;;;;;;14.27;6.57;;;;;;;;;;4933404;29;20016;-60
2022/03/20 08:03:41;;;;;;;12.73;5.90;;;;;;;;;;4933071;29;20090;-59
2022/03/20 08:06:08;;;;;;;14.23;7.05;;;;;;;;;;4933344;29;20033;-61
2022/03/20 08:08:39;;;;;;;12.27;5.90;;;;;;;;;;4933040;29;20432;-60
2022/03/20 08:11:06;;;;;;;13.82;6.72;;;;;;;;;;4933663;29;20476;-60
2022/03/20 08:13:32;;;;;;;11.63;5.82;;;;;;;;;;4934393;29;20032;-61
2022/03/20 08:15:58;;;;;;;12.05;6.50;;;;;;;;;;4934222;29;20099;-59
2022/03/20 08:18:24;;;;;;;14.68;6.63;;;;;;;;;;4933976;29;20096;-60
2022/03/20 08:20:50;;;;;;;10.68;5.88;;;;;;;;;;4927367;29;20035;-60
2022/03/20 08:23:16;;;;;;;13.57;6.00;;;;;;;;;;4924215;29;20038;-60
2022/03/20 08:25:44;;;;;;;12.93;5.80;;;;;;;;;;4923297;29;20048;-60
2022/03/20 08:28:11;;;;;;;12.85;6.13;;;;;;;;;;4924779;29;20032;-59
2022/03/20 08:30:39;;;;;;;13.35;6.00;;;;;;;;;;4925240;29;20032;-59
2022/03/20 08:33:05;;;;;;;10.40;6.25;;;;;;;;;;4923298;29;20452;-60
2022/03/20 08:35:31;;;;;;;14.35;6.15;;;;;;;;;;4924278;29;20503;-59
2022/03/20 08:37:57;;;;;;;12.82;6.25;;;;;;;;;;4924368;29;20763;-62
2022/03/20 08:40:25;;;;;;;15.55;6.95;;;;;;;;;;4922663;29;20036;-59
2022/03/20 08:42:55;;;;;;;12.38;5.93;;;;;;;;;;4924540;29;20076;-59
2022/03/20 08:45:21;;;;;;;10.48;5.95;;;;;;;;;;4924692;29;20483;-59
2022/03/20 08:47:47;;;;;;;11.57;5.88;;;;;;;;;;4923173;29;20024;-58
2022/03/20 08:50:14;;;;;;;11.32;5.95;;;;;;;;;;4923222;29;20031;-58
2022/03/20 08:52:42;;;;;;;15.95;7.03;;;;;;;;;;4927946;29;20507;-61
2022/03/20 08:55:11;;;;;;;12.02;6.10;;;;;;;;;;4920941;29;20507;-60
2022/03/20 08:57:41;;;;;;;14.10;6.80;;;;;;;;;;4932682;29;20599;-58
2022/03/20 09:00:08;;;;;;;14.30;6.85;;;;;;;;;;4933435;29;20055;-60
2022/03/20 09:02:34;;;;;;;17.73;8.85;;;;;;;;;;4933856;29;20031;-58
2022/03/20 09:05:00;;;;;;;12.60;6.63;;;;;;;;;;4931787;29;20040;-59
2022/03/20 09:07:26;;;;;;;11.85;6.70;;;;;;;;;;4933018;29;20039;-60
2022/03/20 09:09:52;;;;;;;17.27;6.93;;;;;;;;;;4933331;29;20391;-59
2022/03/20 09:12:18;;;;;;;15.63;6.93;;;;;;;;;;4933335;29;20304;-57
2022/03/20 09:14:45;;;;;;;9.88;5.75;;;;;;;;;;4933259;29;20027;-59
2022/03/20 09:19:57;;;;;;;14.23;6.50;;;;;;;;;;4932950;29;20090;-61
2022/03/20 09:22:25;;;;;;;18.05;8.25;;;;;;;;;;4932630;29;20043;-61
2022/03/20 09:24:52;;;;;;;10.57;6.15;;;;;;;;;;4933186;29;20051;-57
2022/03/20 09:27:18;;;;;;;10.75;6.07;;;;;;;;;;4933399;29;20043;-59
2022/03/20 09:29:44;;;;;;;13.57;5.75;;;;;;;;;;4933692;29;20817;-60
2022/03/20 09:32:10;;;;;;;12.13;5.35;;;;;;;;;;4933287;29;20028;-61
2022/03/20 09:34:36;;;;;;;9.50;5.53;;;;;;;;;;4933200;29;20031;-60
2022/03/20 09:37:02;;;;;;;11.80;6.60;;;;;;;;;;4934510;29;20035;-60
2022/03/20 09:39:28;;;;;;;13.18;6.45;;;;;;;;;;4936971;29;20046;-58
2022/03/20 09:41:55;;;;;;;12.07;5.90;;;;;;;;;;4937248;29;20087;-60
2022/03/20 09:44:27;;;;;;;12.55;6.00;;;;;;;;;;4937382;29;20138;-60
2022/03/20 09:46:53;;;;;;;10.98;5.65;;;;;;;;;;4937319;29;20759;-58
2022/03/20 09:49:22;;;;;;;8.77;5.65;;;;;;;;;;4937298;29;20031;-60
2022/03/20 09:51:48;;;;;;;12.77;6.13;;;;;;;;;;4937511;29;20028;-60
2022/03/20 09:54:14;;;;;;;12.25;5.60;;;;;;;;;;4936717;29;20043;-61
2022/03/20 09:56:43;;;;;;;10.90;5.78;;;;;;;;;;4937068;29;20083;-60
2022/03/20 09:59:10;;;;;;;9.55;5.25;;;;;;;;;;4936294;29;20044;-60
2022/03/20 10:01:36;;;;;;;11.65;6.00;;;;;;;;;;4937028;29;20028;-60
2022/03/20 10:04:09;;;;;;;10.63;5.35;;;;;;;;;;4936531;29;20036;-58
2022/03/20 10:06:36;;;;;;;11.75;5.22;;;;;;;;;;4936925;29;20034;-59
2022/03/20 10:09:06;;;;;;;10.85;5.47;;;;;;;;;;4936550;29;20040;-59
2022/03/20 10:11:33;;;;;;;11.35;5.47;;;;;;;;;;4936756;29;20035;-60
2022/03/20 10:14:08;;;;;;;10.55;5.85;;;;;;;;;;4936561;29;20110;-61
2022/03/20 10:16:35;;;;;;;15.15;6.45;;;;;;;;;;4936457;29;20032;-61
2022/03/20 10:19:01;;;;;;;11.75;5.20;;;;;;;;;;4936352;29;20140;-60
2022/03/20 10:21:46;;;;;;;8.32;5.22;;;;;;;;;;4936476;29;20083;-60
2022/03/20 10:24:23;;;;;;;13.65;5.93;;;;;;;;;;4935531;29;20055;-60
2022/03/20 10:27:08;;;;;;;14.73;5.95;;;;;;;;;;4936291;29;20036;-61
2022/03/20 10:29:36;;;;;;;12.35;5.80;;;;;;;;;;4936347;29;20062;-61
2022/03/20 10:32:03;;;;;;;14.60;5.95;;;;;;;;;;4936024;29;20054;-60
2022/03/20 10:34:29;;;;;;;11.43;5.60;;;;;;;;;;4936062;29;20039;-62
2022/03/20 10:36:55;;;;;;;11.60;5.78;;;;;;;;;;4935969;29;20369;-62
2022/03/20 10:39:22;;;;;;;10.25;5.75;;;;;;;;;;4935446;29;20377;-61
2022/03/20 10:41:53;;;;;;;10.60;5.72;;;;;;;;;;4935884;29;20027;-61
2022/03/20 10:44:20;;;;;;;8.48;4.95;;;;;;;;;;4936101;29;20109;-62
2022/03/20 10:47:00;;;;;;;10.45;5.38;;;;;;;;;;4935852;29;20075;-61
2022/03/20 10:49:26;;;;;;;10.77;5.07;;;;;;;;;;4935075;29;20042;-61
2022/03/20 10:52:25;;;;;;;8.93;5.13;;;;;;;;;;4935753;29;20028;-61
2022/03/20 10:54:52;;;;;;;10.32;5.03;;;;;;;;;;4895465;29;20053;-61
2022/03/20 10:57:18;;;;;;;9.73;5.55;;;;;;;;;;4895571;29;20079;-61
2022/03/20 10:59:56;;;;;;;10.98;5.63;;;;;;;;;;4895528;29;20036;-61
2022/03/20 11:02:23;;;;;;;14.25;5.43;;;;;;;;;;4895346;29;20047;-61
2022/03/20 11:04:50;;;;;;;13.27;6.43;;;;;;;;;;4895566;29;20428;-61
2022/03/20 11:07:23;;;;;;;10.65;6.10;;;;;;;;;;4895333;29;20464;-61
2022/03/20 11:09:50;;;;;;;9.55;5.55;;;;;;;;;;4895279;29;20028;-61
2022/03/20 11:12:24;;;;;;;10.57;5.60;;;;;;;;;;4895470;29;20221;-61
2022/03/20 11:14:50;;;;;;;11.13;6.15;;;;;;;;;;4895272;29;20037;-61
2022/03/20 11:17:18;;;;;;;8.95;5.10;;;;;;;;;;4895042;29;20409;-60
2022/03/20 11:19:54;;;;;;;12.32;6.13;;;;;;;;;;4895306;29;20041;-61
2022/03/20 11:22:21;;;;;;;9.70;4.85;;;;;;;;;;4895029;29;20073;-61
2022/03/20 11:24:48;;;;;;;9.93;5.40;;;;;;;;;;4894942;29;20076;-59
2022/03/20 11:27:18;;;;;;;11.23;5.63;;;;;;;;;;4895086;29;20441;-59
2022/03/20 11:29:48;;;;;;;11.45;5.40;;;;;;;;;;4903004;29;20047;-59
2022/03/20 11:32:14;;;;;;;9.15;5.25;;;;;;;;;;4933784;29;20448;-58
2022/03/20 11:34:40;;;;;;;10.45;5.30;;;;;;;;;;4932278;29;20035;-59
2022/03/20 11:37:11;;;;;;;10.07;5.13;;;;;;;;;;4934894;29;20032;-58
2022/03/20 11:39:38;;;;;;;13.02;6.20;;;;;;;;;;4933415;29;20040;-58
2022/03/20 11:42:20;;;;;;;11.48;4.38;;;;;;;;;;4934959;29;20022;-58
2022/03/20 11:45:04;;;;;;;9.88;4.80;;;;;;;;;;4934469;29;20024;-60
2022/03/20 11:47:31;;;;;;;8.25;4.57;;;;;;;;;;4934744;29;20476;-60
2022/03/20 11:50:07;;;;;;;10.55;4.65;;;;;;;;;;4934659;29;20044;-60
2022/03/20 11:52:44;;;;;;;9.50;4.65;;;;;;;;;;4934683;29;20206;-60
2022/03/20 11:55:24;;;;;;;11.20;5.25;;;;;;;;;;4934578;29;20488;-60
2022/03/20 11:57:50;;;;;;;9.05;4.35;;;;;;;;;;4934539;29;20031;-61
2022/03/20 12:00:19;;;;;;;10.98;5.07;;;;;;;;;;4934164;29;20044;-60
2022/03/20 12:02:45;;;;;;;11.63;5.20;;;;;;;;;;4932605;29;20019;-61
2022/03/20 12:05:17;;;;;;;11.43;5.10;;;;;;;;;;4934327;29;20587;-61
2022/03/20 12:07:59;;;;;;;7.28;4.45;;;;;;;;;;4934488;29;20536;-61
2022/03/20 12:10:30;;;;;;;11.40;4.57;;;;;;;;;;4934610;29;20388;-60
2022/03/20 12:13:15;;;;;;;10.57;4.10;;;;;;;;;;4934036;29;20023;-60
2022/03/20 12:15:42;;;;;;;11.18;5.20;;;;;;;;;;4930959;29;20035;-60
2022/03/20 12:18:10;;;;;;;10.90;5.60;;;;;;;;;;4924755;29;20051;-59
2022/03/20 12:20:49;;;;;;;9.57;4.90;;;;;;;;;;4923124;29;20032;-63
2022/03/20 12:23:33;;;;;;;8.02;4.65;;;;;;;;;;4923089;29;20056;-61
2022/03/20 12:26:19;;;;;;;9.80;5.22;;;;;;;;;;4923428;29;20082;-63
2022/03/20 12:28:45;;;;;;;9.85;4.97;;;;;;;;;;4931548;29;20028;-62
2022/03/20 12:31:11;;;;;;;9.95;5.63;;;;;;;;;;4933448;29;20024;-63
2022/03/20 12:33:37;;;;;;;11.00;5.35;;;;;;;;;;4933616;29;20023;-62
2022/03/20 12:36:03;;;;;;;8.90;5.10;;;;;;;;;;4933738;29;20454;-62
2022/03/20 12:38:37;;;;;;;8.35;4.53;;;;;;;;;;4928260;29;20175;-62
2022/03/20 12:41:14;;;;;;;9.05;4.55;;;;;;;;;;4924841;29;20031;-63
2022/03/20 12:43:40;;;;;;;8.75;4.97;;;;;;;;;;4924760;29;20538;-63
2022/03/20 12:46:08;;;;;;;14.68;7.07;;;;;;;;;;4923138;29;20032;-63
2022/03/20 12:48:35;;;;;;;14.45;6.88;;;;;;;;;;4922823;29;20020;-61
2022/03/20 12:51:04;;;;;;;12.82;6.05;;;;;;;;;;4924925;29;20510;-64
2022/03/20 12:53:45;;;;;;;12.63;5.70;;;;;;;;;;4923174;29;20055;-63
2022/03/20 12:56:28;;;;;;;8.60;4.47;;;;;;;;;;4932235;29;20458;-63
2022/03/20 12:58:54;;;;;;;7.40;4.35;;;;;;;;;;4931704;29;20027;-64
2022/03/20 13:01:20;;;;;;;7.82;4.35;;;;;;;;;;4932992;29;20027;-64
2022/03/20 13:03:47;;;;;;;10.27;4.63;;;;;;;;;;4933097;29;20050;-61
2022/03/20 13:06:15;;;;;;;11.00;5.10;;;;;;;;;;4933106;29;20023;-63
2022/03/20 13:08:45;;;;;;;11.35;4.68;;;;;;;;;;4932919;29;20031;-61
2022/03/20 13:14:05;;;;;;;9.65;4.90;;;;;;;;;;4931964;29;20030;-63
2022/03/20 13:16:35;;;;;;;6.95;4.15;;;;;;;;;;4930684;29;20024;-61
2022/03/20 13:19:01;;;;;;;8.23;4.50;;;;;;;;;;4932720;29;20395;-61
2022/03/20 13:21:29;;;;;;;9.15;4.30;;;;;;;;;;4933056;29;20548;-62
2022/03/20 13:23:56;;;;;;;10.35;4.72;;;;;;;;;;4932228;29;20600;-62
2022/03/20 13:26:22;;;;;;;11.70;5.15;;;;;;;;;;4932528;29;20031;-62
2022/03/20 13:28:49;;;;;;;9.70;6.32;;;;;;;;;;4932805;29;20539;-62
2022/03/20 13:31:19;;;;;;;9.27;5.03;;;;;;;;;;4933153;29;20024;-62
2022/03/20 13:33:53;;;;;;;11.68;4.68;;;;;;;;;;4930450;29;20794;-62
2022/03/20 13:36:23;;;;;;;8.40;4.85;;;;;;;;;;4932410;29;20132;-62
2022/03/20 13:38:52;;;;;;;14.55;7.32;;;;;;;;;;4921772;29;20518;-61
2022/03/20 13:41:19;;;;;;;7.35;4.88;;;;;;;;;;4923559;29;20028;-62
2022/03/20 13:43:46;;;;;;;9.35;4.55;;;;;;;;;;4923254;29;20083;-61
2022/03/20 13:46:17;;;;;;;10.63;5.20;;;;;;;;;;4927799;29;20464;-62
2022/03/20 13:48:43;;;;;;;8.57;4.70;;;;;;;;;;4923341;29;20031;-62
2022/03/20 13:51:09;;;;;;;14.65;4.90;;;;;;;;;;4916817;29;20129;-60
2022/03/20 13:53:36;;;;;;;11.40;5.40;;;;;;;;;;4914126;29;20024;-60
2022/03/20 13:56:02;;;;;;;12.88;5.63;;;;;;;;;;4914033;29;20111;-61
2022/03/20 13:58:28;;;;;;;10.20;5.05;;;;;;;;;;4913987;29;20039;-61
2022/03/20 14:01:01;;;;;;;11.57;5.65;;;;;;;;;;4914025;29;20039;-60
2022/03/20 14:03:28;;;;;;;11.27;5.40;;;;;;;;;;4913866;29;20047;-61
2022/03/20 14:05:55;;;;;;;10.25;5.10;;;;;;;;;;4913670;29;20111;-61
2022/03/20 14:08:21;;;;;;;9.55;5.43;;;;;;;;;;4913960;29;20043;-61
2022/03/20 14:10:53;;;;;;;8.88;4.90;;;;;;;;;;4913750;29;20031;-61
2022/03/20 14:13:19;;;;;;;13.95;7.28;;;;;;;;;;4914000;29;20043;-63
2022/03/20 14:15:54;;;;;;;11.55;5.50;;;;;;;;;;4914345;29;20031;-61
2022/03/20 14:18:20;;;;;;;8.23;4.90;;;;;;;;;;4913925;29;20032;-62
2022/03/20 14:20:46;;;;;;;8.02;4.80;;;;;;;;;;4913787;29;20060;-62
2022/03/20 14:23:12;;;;;;;8.88;4.95;;;;;;;;;;4913749;29;20051;-61
2022/03/20 14:25:43;;;;;;;14.70;7.30;;;;;;;;;;4917273;29;20059;-63
2022/03/20 14:28:11;;;;;;;12.40;5.90;;;;;;;;;;4917508;29;20108;-61
2022/03/20 14:41:48;;;;;;;11.93;6.25;;;;;;;;;;4934643;29;20091;-59
2022/03/20 14:44:15;;;;;;;9.85;5.53;;;;;;;;;;4934487;29;20369;-62
2022/03/20 14:46:42;;;;;;;9.52;5.07;;;;;;;;;;4935708;29;20028;-60
2022/03/20 14:49:09;;;;;;;31.08;14.75;;;;;;;;;;4936554;29;20443;-59
2022/03/20 14:51:39;;;;;;;12.73;6.88;;;;;;;;;;4936266;29;20024;-61
2022/03/20 14:54:05;;;;;;;11.85;6.32;;;;;;;;;;4935250;29;20028;-62
2022/03/20 14:56:32;;;;;;;17.63;8.57;;;;;;;;;;4935486;29;20024;-61
2022/03/20 14:58:59;;;;;;;17.73;9.55;;;;;;;;;;4935575;29;20038;-62
2022/03/20 15:01:26;;;;;;;10.48;5.93;;;;;;;;;;4935407;29;20027;-62
2022/03/20 15:03:53;;;;;;;14.40;7.40;;;;;;;;;;4935539;29;20091;-62
2022/03/20 15:06:21;;;;;;;17.58;8.32;;;;;;;;;;4935486;29;20059;-62
2022/03/20 15:11:32;;;;;;;14.02;7.40;;;;;;;;;;4935396;29;20066;-62
2022/03/20 15:13:59;;;;;;;18.00;11.00;;;;;;;;;;4935412;29;20039;-62
2022/03/20 15:16:26;;;;;;;23.80;11.77;;;;;;;;;;4934829;29;20098;-62
2022/03/20 15:18:53;;;;;;;23.77;12.75;;;;;;;;;;4934906;29;20551;-61
2022/03/20 15:21:19;;;;;;;16.30;7.93;;;;;;;;;;4934609;29;20106;-61
2022/03/20 15:23:46;;;;;;;14.13;7.72;;;;;;;;;;4934350;29;20052;-61
2022/03/20 15:26:12;;;;;;;21.00;11.20;;;;;;;;;;4935144;29;20024;-62
2022/03/20 15:28:39;;;;;;;23.30;11.27;;;;;;;;;;4934784;29;20598;-62
2022/03/20 15:31:05;;;;;;;27.38;13.63;;;;;;;;;;4934104;29;20111;-62
2022/03/20 15:33:35;;;;;;;21.90;9.98;;;;;;;;;;4934254;29;20106;-62
2022/03/20 15:36:01;;;;;;;22.75;11.23;;;;;;;;;;4934456;29;20031;-61
2022/03/20 15:38:28;;;;;;;31.02;14.00;;;;;;;;;;4934780;29;20063;-61
2022/03/20 15:40:54;;;;;;;16.35;9.75;;;;;;;;;;4934817;29;20039;-61
2022/03/20 15:43:20;;;;;;;15.27;6.65;;;;;;;;;;4934680;29;20043;-61
2022/03/20 15:45:47;;;;;;;15.10;7.45;;;;;;;;;;4934657;29;20028;-60
2022/03/20 15:48:13;;;;;;;13.75;7.75;;;;;;;;;;4934608;29;20053;-62
2022/03/20 15:50:40;;;;;;;18.40;8.93;;;;;;;;;;4934983;29;20381;-61
2022/03/20 15:53:06;;;;;;;15.25;8.30;;;;;;;;;;4934554;29;20063;-61
2022/03/20 15:55:32;;;;;;;15.43;7.38;;;;;;;;;;4934217;29;20135;-61
2022/03/20 15:57:58;;;;;;;15.55;7.97;;;;;;;;;;4934433;29;20248;-62
2022/03/20 16:00:24;;;;;;;12.45;7.25;;;;;;;;;;4934385;29;20526;-59
2022/03/20 16:02:50;;;;;;;17.70;8.55;;;;;;;;;;4934312;29;20028;-61
2022/03/20 16:05:16;;;;;;;11.18;5.70;;;;;;;;;;4934267;29;20023;-61
2022/03/20 16:07:42;;;;;;;12.38;6.15;;;;;;;;;;4933950;29;20027;-62
2022/03/20 16:10:08;;;;;;;15.35;8.00;;;;;;;;;;4934149;29;20024;-61
2022/03/20 16:12:34;;;;;;;13.40;6.70;;;;;;;;;;4934338;29;20039;-62
2022/03/20 16:15:00;;;;;;;13.02;7.00;;;;;;;;;;4933743;29;20043;-61
2022/03/20 16:17:26;;;;;;;15.23;8.70;;;;;;;;;;4933585;29;20316;-60
2022/03/20 16:19:52;;;;;;;14.02;8.45;;;;;;;;;;4933648;29;20384;-60
2022/03/20 16:22:19;;;;;;;20.45;10.65;;;;;;;;;;4933872;29;20114;-61
2022/03/20 16:30:14;;;;;;;16.92;9.48;;;;;;;;;;4932500;29;20038;-60
2022/03/20 16:32:43;;;;;;;27.52;14.02;;;;;;;;;;4931998;29;20055;-61
2022/03/20 16:35:09;;;;;;;16.10;7.18;;;;;;;;;;4933498;29;20043;-61
2022/03/20 16:37:35;;;;;;;17.27;9.23;;;;;;;;;;4933426;29;20024;-61
2022/03/20 16:40:01;;;;;;;15.68;8.05;;;;;;;;;;4933264;29;20406;-60
2022/03/20 16:42:27;;;;;;;18.85;9.45;;;;;;;;;;4933125;29;20182;-60
2022/03/20 16:45:04;;;;;;;19.05;10.00;;;;;;;;;;4933367;29;20107;-60
2022/03/20 16:47:31;;;;;;;23.85;10.82;;;;;;;;;;4932706;29;20444;-61
2022/03/20 16:49:57;;;;;;;35.75;13.13;;;;;;;;;;4932958;29;20020;-61
2022/03/20 16:52:23;;;;;;;21.90;10.15;;;;;;;;;;4933203;29;20045;-61
2022/03/20 16:54:49;;;;;;;21.45;10.52;;;;;;;;;;4932710;29;20039;-60
2022/03/20 16:57:15;;;;;;;28.92;13.50;;;;;;;;;;4933557;29;20032;-61
2022/03/20 16:59:44;;;;;;;26.63;14.52;;;;;;;;;;4916445;29;20103;-60
2022/03/20 17:02:10;;;;;;;28.42;12.80;;;;;;;;;;4914388;29;20107;-61
2022/03/20 17:04:36;;;;;;;26.58;14.02;;;;;;;;;;4914649;29;20119;-61
2022/03/20 17:07:03;;;;;;;22.90;11.23;;;;;;;;;;4914455;29;20107;-61
2022/03/20 17:09:29;;;;;;;20.58;9.70;;;;;;;;;;4914479;29;20032;-62
2022/03/20 17:11:55;;;;;;;23.45;12.43;;;;;;;;;;4913831;29;20123;-61
2022/03/20 17:14:22;;;;;;;18.50;9.45;;;;;;;;;;4914262;29;20107;-61
2022/03/20 17:16:48;;;;;;;24.05;12.18;;;;;;;;;;4914387;29;20028;-62
2022/03/20 17:19:14;;;;;;;21.98;11.52;;;;;;;;;;4914466;29;20040;-61
2022/03/20 17:21:42;;;;;;;21.63;11.80;;;;;;;;;;4914551;29;20032;-62
2022/03/20 17:24:08;;;;;;;40.33;18.35;;;;;;;;;;4914154;29;20048;-61
2022/03/20 17:26:35;;;;;;;28.00;13.95;;;;;;;;;;4914064;29;20511;-61
2022/03/20 17:29:01;;;;;;;32.63;15.48;;;;;;;;;;4914038;29;20484;-61
2022/03/20 17:31:27;;;;;;;59.38;24.67;;;;;;;;;;4914436;29;20086;-61
2022/03/20 17:33:55;;;;;;;51.60;24.10;;;;;;;;;;4913830;29;20473;-61
2022/03/20 17:36:21;;;;;;;30.95;15.02;;;;;;;;;;4914134;29;20025;-60
2022/03/20 17:38:47;;;;;;;27.88;13.80;;;;;;;;;;4913881;29;20106;-61
2022/03/20 17:41:14;;;;;;;17.85;10.18;;;;;;;;;;4913840;29;20043;-62
2022/03/20 17:43:40;;;;;;;21.98;10.82;;;;;;;;;;4914104;29;20087;-60
2022/03/20 17:46:08;;;;;;;26.02;12.43;;;;;;;;;;4914254;29;20032;-60
2022/03/20 17:48:35;;;;;;;31.35;15.48;;;;;;;;;;4914048;29;20027;-60
2022/03/20 17:51:02;;;;;;;26.50;13.68;;;;;;;;;;4914149;29;20032;-61
2022/03/20 17:53:32;;;;;;;34.80;15.45;;;;;;;;;;4913999;29;20024;-61
2022/03/20 17:55:58;;;;;;;46.10;21.20;;;;;;;;;;4914143;29;20500;-61
2022/03/20 17:58:25;;;;;;;33.33;16.13;;;;;;;;;;4915583;29;20474;-62
2022/03/20 18:00:51;;;;;;;33.72;17.08;;;;;;;;;;4917776;29;20087;-62
2022/03/20 18:08:47;;;;;;;31.25;17.27;;;;;;;;;;4917787;29;20042;-63
2022/03/20 18:11:14;;;;;;;62.28;31.83;;;;;;;;;;4917687;29;20518;-62
2022/03/20 18:13:41;;;;;;;63.78;32.28;;;;;;;;;;4917655;29;20028;-62
2022/03/20 18:16:08;;;;;;;56.85;26.88;;;;;;;;;;4917347;29;20035;-62
2022/03/20 18:18:34;;;;;;;51.45;26.25;;;;;;;;;;4930853;29;20292;-62
2022/03/20 18:21:00;;;;;;;68.30;32.45;;;;;;;;;;4935926;29;20055;-62
2022/03/20 18:23:26;;;;;;;47.25;24.23;;;;;;;;;;4934318;29;20055;-62
2022/03/20 18:25:52;;;;;;;61.25;30.13;;;;;;;;;;4927761;29;20032;-61
2022/03/20 18:28:18;;;;;;;54.22;27.45;;;;;;;;;;4921335;29;20452;-61
2022/03/20 18:30:45;;;;;;;46.53;20.92;;;;;;;;;;4932130;29;20077;-62
2022/03/20 18:33:11;;;;;;;48.42;22.80;;;;;;;;;;4922122;29;20032;-60
2022/03/20 18:35:39;;;;;;;46.13;21.77;;;;;;;;;;4927081;29;20111;-61
2022/03/20 18:38:08;;;;;;;47.33;20.55;;;;;;;;;;4917051;29;20028;-61
2022/03/20 18:40:38;;;;;;;59.83;22.85;;;;;;;;;;4931415;29;20032;-62
2022/03/20 18:43:04;;;;;;;69.60;27.15;;;;;;;;;;4927466;29;20035;-60
2022/03/20 18:45:31;;;;;;;57.92;21.77;;;;;;;;;;4922031;29;20032;-60
2022/03/20 18:47:57;;;;;;;52.08;23.13;;;;;;;;;;4931967;29;20032;-61
2022/03/20 18:50:23;;;;;;;76.78;27.30;;;;;;;;;;4921567;29;20035;-61
2022/03/20 18:52:49;;;;;;;54.55;21.92;;;;;;;;;;4926999;29;20409;-63
2022/03/20 18:55:16;;;;;;;79.28;29.98;;;;;;;;;;4928277;29;20032;-60
2022/03/20 18:57:42;;;;;;;83.65;33.50;;;;;;;;;;4919852;29;20212;-61
2022/03/20 19:00:12;;;;;;;86.60;35.58;;;;;;;;;;4932084;29;20040;-60
2022/03/20 19:02:39;;;;;;;76.35;32.47;;;;;;;;;;4923646;29;20023;-61
2022/03/20 19:05:06;;;;;;;87.57;35.42;;;;;;;;;;4924722;29;20032;-60
2022/03/20 19:07:33;;;;;;;87.65;35.30;;;;;;;;;;4929767;29;20066;-61
2022/03/20 19:09:59;;;;;;;77.47;34.00;;;;;;;;;;4933413;29;20111;-64
2022/03/20 19:12:26;;;;;;;74.60;29.20;;;;;;;;;;4934453;29;20038;-60
2022/03/20 19:14:53;;;;;;;70.03;29.35;;;;;;;;;;4934484;29;20058;-60
2022/03/20 19:17:22;;;;;;;79.63;36.53;;;;;;;;;;4934736;29;20028;-60
2022/03/20 19:19:48;;;;;;;94.68;39.95;;;;;;;;;;4925479;29;20044;-59
2022/03/20 19:22:14;;;;;;;89.97;39.85;;;;;;;;;;4916366;29;20044;-62
2022/03/20 19:24:43;;;;;;;97.25;42.10;;;;;;;;;;4914793;29;20063;-61
2022/03/20 19:27:13;;;;;;;87.60;36.45;;;;;;;;;;4916094;29;20036;-61
2022/03/20 19:29:40;;;;;;;94.13;38.67;;;;;;;;;;4916409;29;20024;-62
2022/03/20 19:32:07;;;;;;;99.75;43.20;;;;;;;;;;4916142;29;20028;-61
2022/03/20 19:40:03;;;;;;;98.43;43.38;;;;;;;;;;4915654;29;20124;-62
2022/03/20 19:42:32;;;;;;;106.72;46.53;;;;;;;;;;4915547;29;20107;-62
2022/03/20 19:45:00;;;;;;;131.23;53.08;;;;;;;;;;4915583;29;20028;-62
2022/03/20 19:47:27;;;;;;;116.15;49.65;;;;;;;;;;4923449;29;20027;-62
2022/03/20 19:49:54;;;;;;;105.95;42.38;;;;;;;;;;4934840;29;20028;-60
2022/03/20 19:52:23;;;;;;;78.20;33.60;;;;;;;;;;4934597;29;20156;-62
2022/03/20 19:54:49;;;;;;;80.70;34.95;;;;;;;;;;4934931;29;20275;-61
2022/03/20 19:57:15;;;;;;;61.92;28.05;;;;;;;;;;4934394;29;20028;-62
2022/03/20 19:59:41;;;;;;;62.00;25.63;;;;;;;;;;4922771;29;20048;-62
2022/03/20 20:02:07;;;;;;;66.95;28.50;;;;;;;;;;4915617;29;20032;-63
2022/03/20 20:04:34;;;;;;;52.72;23.15;;;;;;;;;;4930967;29;20531;-60
2022/03/20 20:07:00;;;;;;;63.20;27.73;;;;;;;;;;4933102;29;20035;-64
2022/03/20 20:09:26;;;;;;;57.85;25.40;;;;;;;;;;4933470;29;20388;-63
2022/03/20 20:11:53;;;;;;;85.15;32.40;;;;;;;;;;4933199;29;20098;-63
2022/03/20 20:17:05;;;;;;;95.53;40.92;;;;;;;;;;4933504;29;20068;-64
2022/03/20 20:19:32;;;;;;;113.60;44.88;;;;;;;;;;4933327;29;20373;-59
2022/03/20 20:21:58;;;;;;;124.60;49.40;;;;;;;;;;4931330;29;20020;-64
2022/03/20 20:24:24;;;;;;;135.63;50.25;;;;;;;;;;4932671;29;20048;-62
2022/03/20 20:26:51;;;;;;;138.00;55.45;;;;;;;;;;4933111;29;20024;-64
2022/03/20 20:29:17;;;;;;;142.93;57.10;;;;;;;;;;4934263;29;20023;-60
2022/03/20 20:31:44;;;;;;;142.80;57.13;;;;;;;;;;4934215;29;20494;-63
2022/03/20 20:34:11;;;;;;;135.90;54.55;;;;;;;;;;4933525;29;20040;-62
2022/03/20 20:36:37;;;;;;;109.28;46.35;;;;;;;;;;4933131;29;20036;-64
2022/03/20 20:39:04;;;;;;;104.80;41.13;;;;;;;;;;4933804;29;20434;-63
2022/03/20 20:41:30;;;;;;;102.50;43.40;;;;;;;;;;4932937;29;20072;-60
2022/03/20 20:43:56;;;;;;;111.90;44.70;;;;;;;;;;4933894;29;20110;-63
2022/03/20 20:46:23;;;;;;;88.15;38.08;;;;;;;;;;4933196;29;20028;-60
2022/03/20 20:48:49;;;;;;;102.82;43.55;;;;;;;;;;4932489;29;20027;-61
2022/03/20 20:51:18;;;;;;;89.68;38.75;;;;;;;;;;4932061;29;20034;-59
2022/03/20 20:53:45;;;;;;;79.43;33.05;;;;;;;;;;4931016;29;20111;-63
2022/03/20 20:56:12;;;;;;;82.50;35.80;;;;;;;;;;4931944;29;20072;-63
2022/03/20 20:58:40;;;;;;;59.70;26.20;;;;;;;;;;4931987;29;20046;-62
2022/03/20 21:01:06;;;;;;;63.15;27.55;;;;;;;;;;4932856;29;20499;-64
2022/03/20 21:03:32;;;;;;;65.15;27.60;;;;;;;;;;4933614;29;20490;-63
2022/03/20 21:05:58;;;;;;;57.50;24.65;;;;;;;;;;4933485;29;20031;-63
2022/03/20 21:11:10;;;;;;;57.90;27.23;;;;;;;;;;4933763;29;20055;-61
2022/03/20 21:13:37;;;;;;;79.38;35.72;;;;;;;;;;4933246;29;20472;-62
2022/03/20 21:16:05;;;;;;;69.15;30.05;;;;;;;;;;4933128;29;20127;-63
2022/03/20 21:18:31;;;;;;;64.70;28.63;;;;;;;;;;4933444;29;20403;-61
2022/03/20 21:20:58;;;;;;;59.70;26.80;;;;;;;;;;4933232;29;20064;-62
2022/03/20 21:23:24;;;;;;;71.70;30.17;;;;;;;;;;4932208;29;20036;-61
2022/03/20 21:25:50;;;;;;;65.22;27.73;;;;;;;;;;4933015;29;20040;-62
2022/03/20 21:28:17;;;;;;;62.80;26.65;;;;;;;;;;4930712;29;20111;-60
2022/03/20 21:30:43;;;;;;;62.20;26.05;;;;;;;;;;4927507;29;20036;-63
2022/03/20 21:33:09;;;;;;;68.30;27.70;;;;;;;;;;4916592;29;20033;-60
2022/03/20 21:35:36;;;;;;;60.92;28.52;;;;;;;;;;4928872;29;20055;-60